createdAt,value
2023-01-20T00:02:24.267Z,42.05
2023-01-20T00:06:41.470Z,36.10
2023-01-20T00:10:58.575Z,35.05
2023-01-20T00:15:15.943Z,35.03
2023-01-20T00:19:33.046Z,34.57
2023-01-20T00:23:50.413Z,38.25
2023-01-20T00:28:07.488Z,36.58
2023-01-20T00:32:24.565Z,35.45
2023-01-20T00:36:41.739Z,37.28
2023-01-20T00:40:59.362Z,40.30
2023-01-20T00:45:16.571Z,37.50
2023-01-20T00:49:33.638Z,35.25
2023-01-20T00:53:50.764Z,38.63
2023-01-20T00:58:07.959Z,37.20
2023-01-20T01:02:25.115Z,39.30
2023-01-20T01:06:42.196Z,37.08
2023-01-20T01:10:59.309Z,36.40
2023-01-20T01:15:16.516Z,37.70
2023-01-20T01:19:33.615Z,37.17
2023-01-20T01:23:53.056Z,36.85
2023-01-20T01:28:10.188Z,35.63
2023-01-20T01:32:27.553Z,36.97
2023-01-20T01:36:44.701Z,37.30
2023-01-20T01:41:02.009Z,36.28
2023-01-20T01:45:24.444Z,40.87
2023-01-20T01:49:41.619Z,41.30
2023-01-20T01:54:05.002Z,45.10
2023-01-20T01:58:27.479Z,42.72
2023-01-20T02:02:45.796Z,42.60
2023-01-20T02:11:25.181Z,45.78
2023-01-20T02:15:53.576Z,42.22
2023-01-20T02:20:46.584Z,41.17
2023-01-20T02:25:20.621Z,41.63
2023-01-20T02:29:57.614Z,33.28
2023-01-20T02:34:29.192Z,37.92
2023-01-20T02:39:01.620Z,37.63
2023-01-20T02:43:47.004Z,36.40
2023-01-20T02:48:36.633Z,36.25
2023-01-20T02:52:58.283Z,38.33
2023-01-20T02:57:21.570Z,32.63
2023-01-20T03:01:54.890Z,40.10
2023-01-20T03:06:18.904Z,36.95
2023-01-20T03:10:42.820Z,37.22
2023-01-20T03:15:00.006Z,40.08
2023-01-20T03:19:20.408Z,43.63
2023-01-20T03:23:46.430Z,39.28
2023-01-20T03:28:03.624Z,40.08
2023-01-20T03:32:26.955Z,38.15
2023-01-20T03:36:45.114Z,37.53
2023-01-20T03:41:10.020Z,35.55
2023-01-20T03:45:42.289Z,34.42
2023-01-20T03:50:23.632Z,40.50
2023-01-20T03:54:47.569Z,39.85
2023-01-20T03:59:06.705Z,40.40
2023-01-20T04:03:29.661Z,38.53
2023-01-20T04:07:47.977Z,38.40
2023-01-20T04:16:24.269Z,33.75
2023-01-20T04:20:44.292Z,37.17
2023-01-20T04:25:09.447Z,35.35
2023-01-20T04:29:26.549Z,34.05
2023-01-20T04:33:43.658Z,31.23
2023-01-20T04:38:00.703Z,30.13
2023-01-20T04:42:17.825Z,29.20
2023-01-20T04:46:36.931Z,29.50
2023-01-20T04:50:54.257Z,30.40
2023-01-20T04:55:12.081Z,29.15
2023-01-20T04:59:29.285Z,28.52
2023-01-20T05:03:46.443Z,28.00
2023-01-20T05:08:04.761Z,32.00
2023-01-20T05:12:21.926Z,32.45
2023-01-20T05:16:39.082Z,28.33
2023-01-20T05:20:56.137Z,31.67
2023-01-20T05:25:13.959Z,42.88
2023-01-20T05:29:31.644Z,35.70
2023-01-20T05:33:48.767Z,31.30
2023-01-20T05:38:06.013Z,34.25
2023-01-20T05:42:23.115Z,36.20
2023-01-20T05:46:40.282Z,30.25
2023-01-20T05:50:57.469Z,28.67
2023-01-20T05:55:14.761Z,30.50
2023-01-20T05:59:32.031Z,36.63
2023-01-20T06:03:49.150Z,32.97
2023-01-20T06:08:06.419Z,31.05
2023-01-20T06:12:24.292Z,31.33
2023-01-20T06:16:41.408Z,33.55
2023-01-20T06:20:58.892Z,27.45
2023-01-20T06:25:16.239Z,29.30
2023-01-20T06:29:33.532Z,32.00
2023-01-20T06:33:50.588Z,31.95
2023-01-20T06:38:07.657Z,28.27
2023-01-20T06:42:24.767Z,37.17
2023-01-20T06:46:41.903Z,35.25
2023-01-20T06:51:19.791Z,36.92
2023-01-20T06:55:36.875Z,36.88
2023-01-20T06:59:54.215Z,37.60
2023-01-20T07:04:14.582Z,48.03
2023-01-20T07:08:31.733Z,39.97
2023-01-20T07:12:48.813Z,40.40
2023-01-20T07:17:11.475Z,45.03
2023-01-20T07:21:28.674Z,39.47
2023-01-20T07:25:45.796Z,41.78
2023-01-20T07:30:02.966Z,47.38
2023-01-20T07:34:20.075Z,41.10
2023-01-20T07:38:37.705Z,49.20
2023-01-20T07:42:54.773Z,48.37
2023-01-20T07:47:11.876Z,45.17
2023-01-20T07:51:28.958Z,44.75
2023-01-20T07:55:46.042Z,50.47
2023-01-20T08:00:04.096Z,52.33
2023-01-20T08:04:21.389Z,43.15
2023-01-20T08:08:39.018Z,45.80
2023-01-20T08:12:56.114Z,41.00
2023-01-20T08:17:13.299Z,42.35
2023-01-20T08:21:32.002Z,47.33
2023-01-20T08:25:49.271Z,40.38
2023-01-20T08:30:07.105Z,47.13
2023-01-20T08:34:24.175Z,40.58
2023-01-20T08:38:41.945Z,47.85
2023-01-20T08:42:59.088Z,46.03
2023-01-20T08:47:16.217Z,39.97
2023-01-20T08:51:33.913Z,42.97
2023-01-20T08:55:58.799Z,40.85
2023-01-20T09:00:16.527Z,43.25
2023-01-20T09:04:37.273Z,43.30
2023-01-20T09:08:55.081Z,44.65
2023-01-20T09:13:12.180Z,47.22
2023-01-20T09:17:29.400Z,40.28
2023-01-20T09:21:46.517Z,36.72
2023-01-20T09:26:05.392Z,40.60
2023-01-20T09:30:22.468Z,83.30
2023-01-20T09:34:39.563Z,89.32
2023-01-20T09:39:15.345Z,40.80
2023-01-20T09:44:08.766Z,43.38
2023-01-20T09:49:04.720Z,44.55
2023-01-20T09:53:30.176Z,42.15
2023-01-20T09:57:59.179Z,32.97
2023-01-20T10:02:25.195Z,37.80
2023-01-20T10:06:49.752Z,41.60
2023-01-20T10:11:12.438Z,31.90
2023-01-20T10:15:40.220Z,30.98
2023-01-20T10:20:15.786Z,43.10
2023-01-20T10:24:38.814Z,33.97
2023-01-20T10:28:59.696Z,35.13
2023-01-20T10:33:26.178Z,36.75
2023-01-20T10:37:43.388Z,39.00
2023-01-20T10:42:10.024Z,40.15
2023-01-20T10:46:50.391Z,60.17
2023-01-20T10:51:26.910Z,41.10
2023-01-20T10:56:12.289Z,37.45
2023-01-20T11:00:32.001Z,41.72
2023-01-20T11:04:56.750Z,34.95
2023-01-20T11:09:25.995Z,36.08
2023-01-20T11:13:43.476Z,32.40
2023-01-20T11:18:15.615Z,30.42
2023-01-20T11:22:35.251Z,28.05
2023-01-20T11:26:52.355Z,33.88
2023-01-20T11:31:09.511Z,35.38
2023-01-20T11:35:26.660Z,39.47
2023-01-20T11:39:43.739Z,65.68
2023-01-20T11:44:01.081Z,32.58
2023-01-20T11:48:19.195Z,26.13
2023-01-20T11:52:38.700Z,30.35
2023-01-20T11:57:05.147Z,27.58
2023-01-20T12:01:25.491Z,28.38
2023-01-20T12:05:54.940Z,36.22
2023-01-20T12:10:28.371Z,23.23
2023-01-20T12:15:06.005Z,17.77
2023-01-20T12:19:32.147Z,26.38
2023-01-20T12:23:52.692Z,20.40
2023-01-20T12:28:42.089Z,22.83
2023-01-20T12:32:59.272Z,25.77
2023-01-20T12:37:28.644Z,28.15
2023-01-20T12:42:10.431Z,32.33
2023-01-20T12:46:36.546Z,32.35
2023-01-20T12:51:16.170Z,31.08
2023-01-20T12:56:09.448Z,29.83
2023-01-20T13:00:45.316Z,42.08
2023-01-20T13:05:16.954Z,37.67
2023-01-20T13:09:52.426Z,35.50
2023-01-20T13:14:13.701Z,45.83
2023-01-20T13:19:03.484Z,55.17
2023-01-20T13:23:39.281Z,33.80
2023-01-20T13:27:57.041Z,42.33
2023-01-20T13:32:36.890Z,25.07
2023-01-20T13:37:03.303Z,23.08
2023-01-20T13:41:51.867Z,24.92
2023-01-20T13:46:08.969Z,19.80
2023-01-20T13:50:34.894Z,20.95
2023-01-20T13:54:52.303Z,25.15
2023-01-20T13:59:09.538Z,21.08
2023-01-20T14:03:35.173Z,23.95
2023-01-20T14:07:52.546Z,21.23
2023-01-20T14:12:09.683Z,26.80
2023-01-20T14:16:34.358Z,22.40
2023-01-20T14:21:15.768Z,22.98
2023-01-20T14:25:32.883Z,21.58
2023-01-20T14:29:52.315Z,22.10
2023-01-20T14:34:32.616Z,22.10
2023-01-20T14:38:58.307Z,22.33
2023-01-20T14:43:21.719Z,22.08
2023-01-20T14:47:38.942Z,21.10
2023-01-20T14:51:56.315Z,22.30
2023-01-20T14:56:20.714Z,27.33
2023-01-20T15:00:43.688Z,21.63
2023-01-20T15:05:01.349Z,23.38
2023-01-20T15:09:41.785Z,26.08
2023-01-20T15:14:08.182Z,20.20
2023-01-20T15:18:26.704Z,25.98
2023-01-20T15:22:44.405Z,27.58
2023-01-20T15:27:02.706Z,32.30
2023-01-20T15:31:19.923Z,28.40
2023-01-20T15:35:37.135Z,29.20
2023-01-20T15:39:54.482Z,37.38
2023-01-20T15:44:11.597Z,32.50
2023-01-20T15:48:28.691Z,30.75
2023-01-20T15:52:46.194Z,33.92
2023-01-20T15:57:03.374Z,36.27
2023-01-20T16:01:25.638Z,38.33
2023-01-20T16:05:42.806Z,42.67
2023-01-20T16:09:59.988Z,47.92
2023-01-20T16:14:17.104Z,51.72
2023-01-20T16:18:34.211Z,70.95
2023-01-20T16:22:51.835Z,50.70
2023-01-20T16:27:19.329Z,48.60
2023-01-20T16:31:36.571Z,34.08
2023-01-20T16:35:55.151Z,43.90
2023-01-20T16:40:19.120Z,50.28
2023-01-20T16:44:37.305Z,42.70
2023-01-20T16:48:59.266Z,53.03
2023-01-20T16:53:17.310Z,51.10
2023-01-20T16:57:34.425Z,58.05
2023-01-20T17:01:51.608Z,49.38
2023-01-20T17:06:17.311Z,48.28
2023-01-20T17:10:34.806Z,51.35
2023-01-20T17:14:51.905Z,48.47
2023-01-20T17:19:10.209Z,48.00
2023-01-20T17:23:27.387Z,48.03
2023-01-20T17:27:45.130Z,48.88
2023-01-20T17:32:02.249Z,48.47
2023-01-20T17:36:19.724Z,47.15
2023-01-20T17:40:36.791Z,66.57
2023-01-20T17:44:53.930Z,56.08
2023-01-20T17:49:11.166Z,48.47
2023-01-20T17:53:28.254Z,55.23
2023-01-20T17:57:45.320Z,51.28
2023-01-20T18:02:02.477Z,50.90
2023-01-20T18:06:21.495Z,45.35
2023-01-20T18:10:39.253Z,53.28
2023-01-20T18:14:58.502Z,50.83
2023-01-20T18:19:15.957Z,49.92
2023-01-20T18:23:33.363Z,44.55
2023-01-20T18:27:51.008Z,51.45
2023-01-20T18:32:08.671Z,52.42
2023-01-20T18:36:32.120Z,49.08
2023-01-20T18:40:49.803Z,59.60
2023-01-20T18:45:08.907Z,53.97
2023-01-20T18:49:26.024Z,46.85
2023-01-20T18:53:45.502Z,52.87
2023-01-20T18:58:03.752Z,55.50
2023-01-20T19:02:20.841Z,59.05
2023-01-20T19:06:41.058Z,55.27
2023-01-20T19:11:05.677Z,64.97
2023-01-20T19:15:22.781Z,60.83
2023-01-20T19:19:39.863Z,55.88
2023-01-20T19:24:01.052Z,61.75
2023-01-20T19:28:18.356Z,59.85
2023-01-20T19:32:35.456Z,68.75
2023-01-20T19:36:52.594Z,61.97
2023-01-20T19:41:17.527Z,71.70
2023-01-20T19:45:45.321Z,67.72
2023-01-20T19:50:03.156Z,72.32
2023-01-20T19:54:20.258Z,67.07
2023-01-20T19:58:38.110Z,65.87
2023-01-20T20:02:55.589Z,65.78
2023-01-20T20:07:13.338Z,67.97
2023-01-20T20:11:31.422Z,68.93
2023-01-20T20:20:06.095Z,64.55
2023-01-20T20:24:23.499Z,68.87
2023-01-20T20:28:40.628Z,72.90
2023-01-20T20:32:58.560Z,88.40
2023-01-20T20:41:35.220Z,88.03
2023-01-20T20:45:52.959Z,72.70
2023-01-20T20:50:10.792Z,66.35
2023-01-20T20:54:27.941Z,69.38
2023-01-20T20:59:00.051Z,69.40
2023-01-20T21:03:17.833Z,69.30
2023-01-20T21:07:34.903Z,100.32
2023-01-20T21:11:51.971Z,61.25
2023-01-20T21:16:14.082Z,64.50
2023-01-20T21:20:33.079Z,62.60
2023-01-20T21:24:50.267Z,72.03
2023-01-20T21:29:07.479Z,71.95
2023-01-20T21:33:24.596Z,68.63
2023-01-20T21:37:43.313Z,70.97
2023-01-20T21:42:00.692Z,66.20
2023-01-20T21:46:18.659Z,63.47
2023-01-20T21:50:54.527Z,62.28
2023-01-20T21:55:19.082Z,68.80
2023-01-20T21:59:36.590Z,71.68
2023-01-20T22:03:53.780Z,83.50
2023-01-20T22:08:10.837Z,116.60
2023-01-20T22:12:29.048Z,172.80
2023-01-20T22:16:46.144Z,82.60
2023-01-20T22:21:04.458Z,88.75
2023-01-20T22:25:21.531Z,84.65
2023-01-20T22:29:38.625Z,84.93
2023-01-20T22:33:58.423Z,83.53
2023-01-20T22:38:15.492Z,85.20
2023-01-20T22:42:32.559Z,84.85
2023-01-20T22:46:49.710Z,83.50
2023-01-20T22:51:13.983Z,84.55
2023-01-20T22:55:31.146Z,84.38
2023-01-20T22:59:48.315Z,86.57
2023-01-20T23:04:06.757Z,82.90
2023-01-20T23:08:25.381Z,80.45
2023-01-20T23:12:42.500Z,83.82
2023-01-20T23:16:59.578Z,87.47
2023-01-20T23:21:17.080Z,86.07
2023-01-20T23:25:34.312Z,85.63
2023-01-20T23:29:52.893Z,90.65
2023-01-20T23:34:09.984Z,81.72
2023-01-20T23:38:27.087Z,85.15
2023-01-20T23:42:44.658Z,75.85
2023-01-20T23:47:01.822Z,86.50
2023-01-20T23:51:18.968Z,93.57
2023-01-20T23:55:37.395Z,89.03
2023-01-20T23:59:54.468Z,80.97
